createdAt,value
2017-10-09T00:00:12.556Z,85.70
2017-10-09T00:01:15.069Z,86.40
2017-10-09T00:02:17.605Z,86.40
2017-10-09T00:03:20.890Z,86.00
2017-10-09T00:04:23.416Z,86.60
2017-10-09T00:05:25.973Z,85.90
2017-10-09T00:06:28.506Z,85.50
2017-10-09T00:07:31.035Z,85.20
2017-10-09T00:08:33.556Z,85.90
2017-10-09T00:09:36.074Z,85.10
2017-10-09T00:10:38.624Z,83.90
2017-10-09T00:11:41.154Z,83.90
2017-10-09T00:12:43.679Z,83.80
2017-10-09T00:13:46.210Z,83.50
2017-10-09T00:14:49.013Z,83.90
2017-10-09T00:15:51.579Z,84.60
2017-10-09T00:16:54.876Z,84.60
2017-10-09T00:17:57.399Z,84.70
2017-10-09T00:18:59.920Z,84.70
2017-10-09T00:20:02.477Z,85.20
2017-10-09T00:21:04.999Z,84.90
2017-10-09T00:22:07.524Z,84.90
2017-10-09T00:23:10.054Z,85.30
2017-10-09T00:24:13.330Z,85.90
2017-10-09T00:25:15.885Z,85.90
2017-10-09T00:26:18.519Z,86.20
2017-10-09T00:27:21.033Z,86.00
2017-10-09T00:28:24.314Z,86.30
2017-10-09T00:31:05.556Z,86.40
2017-10-09T00:32:08.076Z,86.10
2017-10-09T00:33:11.363Z,86.30
2017-10-09T00:34:13.883Z,86.20
2017-10-09T00:35:16.393Z,86.30
2017-10-09T00:36:18.977Z,85.50
2017-10-09T00:37:21.500Z,85.50
2017-10-09T00:38:24.014Z,86.20
2017-10-09T00:39:26.554Z,87.50
2017-10-09T00:40:29.088Z,86.70
2017-10-09T00:41:31.630Z,86.90
2017-10-09T00:42:34.192Z,86.00
2017-10-09T00:43:36.707Z,85.80
2017-10-09T00:44:39.992Z,85.40
2017-10-09T00:45:43.290Z,85.40
2017-10-09T00:46:45.817Z,85.40
2017-10-09T00:47:48.368Z,85.70
2017-10-09T00:48:50.926Z,86.40
2017-10-09T00:49:53.449Z,86.20
2017-10-09T00:50:56.750Z,86.90
2017-10-09T00:51:59.261Z,86.90
2017-10-09T00:53:01.820Z,87.60
2017-10-09T00:54:04.350Z,87.50
2017-10-09T00:55:06.885Z,86.90
2017-10-09T00:56:10.209Z,86.40
2017-10-09T00:57:12.768Z,86.30
2017-10-09T00:58:15.303Z,87.20
2017-10-09T00:59:18.585Z,86.70
2017-10-09T01:00:21.901Z,86.40
2017-10-09T01:01:24.433Z,86.40
2017-10-09T01:02:27.771Z,86.20
2017-10-09T01:03:30.288Z,86.20
2017-10-09T01:04:33.614Z,87.30
2017-10-09T01:05:36.132Z,87.30
2017-10-09T01:06:39.415Z,87.40
2017-10-09T01:07:42.715Z,86.90
2017-10-09T01:08:45.243Z,86.90
2017-10-09T01:09:47.805Z,86.90
2017-10-09T01:10:50.399Z,86.80
2017-10-09T01:11:53.054Z,86.80
2017-10-09T01:12:55.584Z,86.70
2017-10-09T01:13:58.149Z,86.20
2017-10-09T01:15:00.661Z,86.00
2017-10-09T01:16:03.956Z,85.90
2017-10-09T01:17:07.289Z,85.00
2017-10-09T01:18:09.806Z,85.00
2017-10-09T01:19:13.101Z,85.10
2017-10-09T01:20:15.639Z,85.10
2017-10-09T01:21:18.946Z,86.50
2017-10-09T01:22:22.261Z,86.10
2017-10-09T01:23:24.781Z,86.00
2017-10-09T01:24:28.109Z,86.00
2017-10-09T01:25:30.641Z,86.00
2017-10-09T01:26:33.940Z,85.80
2017-10-09T01:27:36.468Z,85.80
2017-10-09T01:28:39.000Z,85.50
2017-10-09T01:29:41.559Z,86.00
2017-10-09T01:30:44.096Z,86.50
2017-10-09T01:31:46.648Z,86.30
2017-10-09T01:32:49.946Z,86.20
2017-10-09T01:33:53.237Z,86.40
2017-10-09T01:34:55.750Z,86.30
2017-10-09T01:35:58.304Z,86.70
2017-10-09T01:37:00.841Z,86.90
2017-10-09T01:38:03.362Z,86.80
2017-10-09T01:39:05.874Z,86.70
2017-10-09T01:40:08.439Z,86.70
2017-10-09T01:41:10.958Z,86.80
2017-10-09T01:42:13.472Z,87.60
2017-10-09T01:43:16.025Z,87.90
2017-10-09T01:44:18.553Z,88.10
2017-10-09T01:45:21.067Z,87.60
2017-10-09T01:46:23.898Z,87.50
2017-10-09T01:47:26.429Z,87.40
2017-10-09T01:48:29.002Z,87.60
2017-10-09T01:49:31.528Z,87.70
2017-10-09T01:50:34.805Z,87.10
2017-10-09T01:51:38.096Z,87.10
2017-10-09T01:52:40.613Z,87.10
2017-10-09T01:53:43.168Z,86.90
2017-10-09T01:54:45.688Z,87.00
2017-10-09T01:55:48.982Z,87.10
2017-10-09T01:56:51.511Z,87.10
2017-10-09T01:57:54.037Z,87.00
2017-10-09T01:58:56.609Z,87.10
2017-10-09T01:59:59.133Z,87.00
2017-10-09T02:01:01.779Z,86.80
2017-10-09T02:02:04.330Z,86.60
2017-10-09T02:03:06.950Z,86.50
2017-10-09T02:04:09.469Z,86.50
2017-10-09T02:05:12.810Z,86.70
2017-10-09T02:06:15.326Z,86.70
2017-10-09T02:07:17.853Z,86.50
2017-10-09T02:08:20.402Z,86.70
2017-10-09T02:09:22.928Z,86.80
2017-10-09T02:10:25.497Z,86.90
2017-10-09T02:11:28.014Z,87.00
2017-10-09T02:12:30.530Z,86.40
2017-10-09T02:13:33.047Z,86.20
2017-10-09T02:14:35.560Z,85.40
2017-10-09T02:15:38.109Z,85.80
2017-10-09T02:16:40.640Z,86.20
2017-10-09T02:17:43.158Z,85.80
2017-10-09T02:18:45.675Z,85.90
2017-10-09T02:19:48.229Z,85.70
2017-10-09T02:20:50.803Z,85.50
2017-10-09T02:21:53.313Z,85.50
2017-10-09T02:22:57.338Z,86.00
2017-10-09T02:23:59.860Z,86.00
2017-10-09T02:25:02.439Z,85.80
2017-10-09T02:26:04.957Z,85.70
2017-10-09T02:27:07.471Z,85.90
2017-10-09T02:28:09.997Z,85.90
2017-10-09T02:29:12.514Z,85.80
2017-10-09T02:30:15.070Z,85.90
2017-10-09T02:31:17.586Z,85.00
2017-10-09T02:32:20.113Z,84.20
2017-10-09T02:33:22.671Z,84.80
2017-10-09T02:34:25.189Z,85.10
2017-10-09T02:35:27.703Z,85.60
2017-10-09T02:36:30.235Z,85.60
2017-10-09T02:37:32.753Z,85.30
2017-10-09T02:38:36.077Z,84.50
2017-10-09T02:39:38.632Z,84.50
2017-10-09T02:40:41.146Z,84.50
2017-10-09T02:41:43.665Z,84.90
2017-10-09T02:42:46.197Z,84.90
2017-10-09T02:43:48.709Z,84.50
2017-10-09T02:44:51.269Z,84.40
2017-10-09T02:45:53.781Z,84.70
2017-10-09T02:46:56.310Z,84.90
2017-10-09T02:47:58.838Z,84.80
2017-10-09T02:49:02.132Z,85.00
2017-10-09T02:50:04.712Z,85.00
2017-10-09T02:51:07.230Z,85.40
2017-10-09T02:52:09.767Z,85.70
2017-10-09T02:53:12.285Z,85.70
2017-10-09T02:54:14.793Z,85.50
2017-10-09T02:55:17.345Z,84.80
2017-10-09T02:56:19.875Z,84.50
2017-10-09T02:57:23.160Z,84.40
2017-10-09T02:58:26.445Z,84.40
2017-10-09T02:59:29.795Z,84.50
2017-10-09T03:00:32.314Z,84.40
2017-10-09T03:01:34.835Z,84.80
2017-10-09T03:02:37.350Z,84.90
2017-10-09T03:03:39.874Z,84.80
2017-10-09T03:04:43.217Z,85.30
2017-10-09T03:05:45.733Z,85.30
2017-10-09T03:06:49.009Z,86.00
2017-10-09T03:07:51.518Z,86.00
2017-10-09T03:08:54.038Z,86.10
2017-10-09T03:09:56.587Z,85.80
2017-10-09T03:10:59.150Z,85.20
2017-10-09T03:12:01.686Z,84.60
2017-10-09T03:13:04.212Z,84.70
2017-10-09T03:14:07.513Z,85.20
2017-10-09T03:15:10.081Z,85.20
2017-10-09T03:16:12.625Z,85.50
2017-10-09T03:17:15.934Z,85.30
2017-10-09T03:18:18.462Z,85.30
2017-10-09T03:19:20.981Z,85.10
2017-10-09T03:20:23.497Z,85.40
2017-10-09T03:21:26.041Z,84.40
2017-10-09T03:22:33.446Z,84.50
2017-10-09T03:23:40.608Z,84.80
2017-10-09T03:24:53.044Z,85.20
2017-10-09T03:26:01.831Z,85.80
2017-10-09T03:27:15.178Z,85.90
2017-10-09T03:28:18.648Z,86.00
2017-10-09T03:29:27.683Z,87.60
2017-10-09T03:30:30.199Z,87.00
2017-10-09T03:31:32.708Z,86.40
2017-10-09T03:32:36.030Z,86.30
2017-10-09T03:33:38.549Z,86.20
2017-10-09T03:34:41.845Z,86.00
2017-10-09T03:35:45.131Z,86.30
2017-10-09T03:36:48.458Z,86.30
2017-10-09T03:37:51.002Z,87.00
2017-10-09T03:38:53.554Z,86.30
2017-10-09T03:39:56.077Z,86.30
2017-10-09T03:40:58.764Z,86.40
2017-10-09T03:42:02.077Z,86.10
2017-10-09T03:43:04.701Z,86.10
2017-10-09T03:44:07.230Z,86.20
2017-10-09T03:45:09.937Z,86.60
2017-10-09T03:46:12.456Z,86.30
2017-10-09T03:47:14.969Z,85.70
2017-10-09T03:48:17.490Z,85.90
2017-10-09T03:49:20.006Z,86.70
2017-10-09T03:50:22.586Z,86.50
2017-10-09T03:51:25.874Z,86.40
2017-10-09T03:52:29.178Z,86.30
2017-10-09T03:53:31.708Z,86.30
2017-10-09T03:54:34.225Z,86.00
2017-10-09T03:55:36.804Z,85.70
2017-10-09T03:56:39.319Z,85.70
2017-10-09T03:57:42.622Z,86.10
2017-10-09T03:58:45.142Z,86.10
2017-10-09T03:59:47.665Z,85.90
2017-10-09T04:00:50.217Z,86.00
2017-10-09T04:01:52.781Z,86.30
2017-10-09T04:02:55.363Z,85.40
2017-10-09T04:03:57.869Z,85.30
2017-10-09T04:05:00.571Z,86.00
2017-10-09T04:06:03.876Z,86.20
2017-10-09T04:07:06.453Z,86.20
2017-10-09T04:08:08.982Z,86.50
2017-10-09T04:09:12.269Z,87.10
2017-10-09T04:10:15.553Z,86.80
2017-10-09T04:11:18.846Z,86.70
2017-10-09T04:12:21.413Z,86.70
2017-10-09T04:13:24.690Z,86.70
2017-10-09T04:14:27.965Z,86.50
2017-10-09T04:15:31.244Z,86.30
2017-10-09T04:16:34.546Z,86.40
2017-10-09T04:17:37.877Z,86.60
2017-10-09T04:18:40.402Z,86.70
2017-10-09T04:19:42.932Z,86.90
2017-10-09T04:20:45.462Z,87.40
2017-10-09T04:21:47.981Z,87.60
2017-10-09T04:22:51.310Z,86.70
2017-10-09T04:23:53.831Z,86.70
2017-10-09T04:24:57.158Z,86.90
2017-10-09T04:25:59.716Z,86.80
2017-10-09T04:27:02.283Z,86.70
2017-10-09T04:28:05.572Z,86.60
2017-10-09T04:29:08.118Z,86.60
2017-10-09T04:30:10.635Z,86.50
2017-10-09T04:31:13.158Z,86.70
2017-10-09T04:32:15.691Z,86.70
2017-10-09T04:33:18.237Z,86.60
2017-10-09T04:34:20.798Z,86.50
2017-10-09T04:35:23.315Z,86.90
2017-10-09T04:36:25.834Z,86.30
2017-10-09T04:37:28.357Z,86.10
2017-10-09T04:38:30.915Z,86.30
2017-10-09T04:39:33.430Z,86.30
2017-10-09T04:40:35.949Z,86.30
2017-10-09T04:41:38.478Z,86.10
2017-10-09T04:42:41.774Z,86.50
2017-10-09T04:43:45.106Z,85.60
2017-10-09T04:44:47.624Z,85.60
2017-10-09T04:45:50.912Z,85.40
2017-10-09T04:46:54.194Z,85.80
2017-10-09T04:47:57.477Z,86.00
2017-10-09T04:49:00.042Z,86.00
2017-10-09T04:50:03.330Z,86.40
2017-10-09T04:51:06.613Z,86.10
2017-10-09T04:52:09.902Z,85.80
2017-10-09T04:53:13.195Z,85.70
2017-10-09T04:54:15.790Z,85.70
2017-10-09T04:55:18.319Z,85.80
2017-10-09T04:56:21.602Z,86.00
2017-10-09T04:57:24.885Z,86.50
2017-10-09T04:58:28.172Z,86.70
2017-10-09T04:59:31.485Z,86.20
2017-10-09T05:00:34.021Z,86.10
2017-10-09T05:01:37.349Z,85.90
2017-10-09T05:02:39.884Z,85.90
2017-10-09T05:03:42.421Z,86.10
2017-10-09T05:04:45.707Z,85.40
2017-10-09T05:05:48.998Z,85.00
2017-10-09T05:06:51.553Z,85.00
2017-10-09T05:07:54.838Z,85.90
2017-10-09T05:08:58.162Z,85.30
2017-10-09T05:10:00.699Z,85.30
2017-10-09T05:11:03.254Z,85.40
2017-10-09T05:12:06.554Z,85.50
2017-10-09T05:13:09.999Z,85.70
2017-10-09T05:14:12.554Z,85.70
2017-10-09T05:15:15.147Z,85.60
2017-10-09T05:16:17.669Z,85.50
2017-10-09T05:17:20.197Z,85.40
2017-10-09T05:18:23.499Z,86.10
2017-10-09T05:19:26.050Z,86.10
2017-10-09T05:20:29.349Z,86.10
2017-10-09T05:21:31.922Z,86.10
2017-10-09T05:22:34.441Z,85.90
2017-10-09T05:23:36.957Z,85.90
2017-10-09T05:24:39.484Z,86.30
2017-10-09T05:25:42.043Z,85.80
2017-10-09T05:26:44.578Z,85.90
2017-10-09T05:27:47.133Z,85.80
2017-10-09T05:28:49.658Z,85.90
2017-10-09T05:29:52.986Z,85.60
2017-10-09T05:30:55.504Z,85.60
2017-10-09T05:31:58.790Z,85.60
2017-10-09T05:33:01.333Z,85.60
2017-10-09T05:34:03.894Z,85.00
2017-10-09T05:35:06.415Z,84.90
2017-10-09T05:36:08.945Z,84.80
2017-10-09T05:37:12.273Z,85.80
2017-10-09T05:38:14.798Z,85.10
2017-10-09T05:39:18.082Z,85.90
2017-10-09T05:40:21.400Z,85.30
2017-10-09T05:41:24.016Z,85.10
2017-10-09T05:42:26.586Z,85.40
2017-10-09T05:43:29.102Z,85.30
2017-10-09T05:44:31.634Z,85.50
2017-10-09T05:45:34.919Z,85.10
2017-10-09T05:46:38.193Z,85.40
2017-10-09T05:47:40.746Z,85.40
2017-10-09T05:48:43.309Z,85.80
2017-10-09T05:49:45.825Z,85.90
2017-10-09T05:50:48.394Z,85.90
2017-10-09T05:51:50.922Z,85.50
2017-10-09T05:52:53.490Z,85.70
2017-10-09T05:53:56.021Z,85.90
2017-10-09T05:54:58.566Z,86.00
2017-10-09T05:56:01.089Z,86.00
2017-10-09T05:57:04.399Z,85.80
2017-10-09T05:58:07.133Z,85.80
2017-10-09T05:59:10.454Z,85.30
2017-10-09T06:00:12.986Z,85.20
2017-10-09T06:01:15.518Z,85.20
2017-10-09T06:02:18.040Z,85.30
2017-10-09T06:03:20.603Z,85.20
2017-10-09T06:04:23.886Z,85.20
2017-10-09T06:05:27.179Z,85.50
2017-10-09T06:06:30.468Z,85.60
2017-10-09T06:07:32.996Z,85.60
2017-10-09T06:08:35.568Z,85.60
2017-10-09T06:09:38.095Z,85.20
2017-10-09T06:10:40.623Z,85.10
2017-10-09T06:11:43.970Z,84.90
2017-10-09T06:12:46.494Z,84.90
2017-10-09T06:13:49.010Z,85.20
2017-10-09T06:14:51.547Z,85.20
2017-10-09T06:15:54.064Z,84.90
2017-10-09T06:16:57.408Z,85.10
2017-10-09T06:17:59.950Z,85.10
2017-10-09T06:19:02.525Z,85.00
2017-10-09T06:20:05.052Z,85.30
2017-10-09T06:21:07.593Z,85.30
2017-10-09T06:22:10.116Z,85.10
2017-10-09T06:23:12.629Z,84.50
2017-10-09T06:24:15.186Z,83.90
2017-10-09T06:25:17.752Z,84.00
2017-10-09T06:26:20.274Z,84.20
2017-10-09T06:27:22.817Z,84.20
2017-10-09T06:28:26.105Z,84.50
2017-10-09T06:29:29.423Z,84.80
2017-10-09T06:30:31.956Z,84.80
2017-10-09T06:31:35.235Z,84.10
2017-10-09T06:32:38.518Z,83.70
2017-10-09T06:33:41.852Z,84.00
2017-10-09T06:34:44.387Z,83.90
2017-10-09T06:35:46.938Z,83.80
2017-10-09T06:36:49.461Z,84.00
2017-10-09T06:37:51.990Z,83.80
2017-10-09T06:38:54.515Z,84.10
2017-10-09T06:39:57.051Z,84.40
2017-10-09T06:40:59.617Z,84.30
2017-10-09T06:42:02.145Z,84.10
2017-10-09T06:43:04.693Z,84.30
2017-10-09T06:44:07.236Z,84.50
2017-10-09T06:45:09.760Z,84.00
2017-10-09T06:46:12.339Z,84.40
2017-10-09T06:47:14.940Z,84.50
2017-10-09T06:48:18.243Z,83.90
2017-10-09T06:49:21.577Z,84.10
2017-10-09T06:50:24.098Z,84.10
2017-10-09T06:51:26.626Z,83.70
2017-10-09T06:52:29.148Z,83.90
2017-10-09T06:53:31.665Z,83.80
2017-10-09T06:54:34.232Z,84.00
2017-10-09T06:55:36.767Z,83.60
2017-10-09T06:56:39.290Z,83.60
2017-10-09T06:57:42.577Z,83.60
2017-10-09T06:58:45.159Z,83.60
2017-10-09T06:59:47.683Z,84.00
2017-10-09T07:00:50.216Z,83.90
2017-10-09T07:01:52.782Z,83.40
2017-10-09T07:02:55.330Z,83.40
2017-10-09T07:03:57.850Z,83.30
2017-10-09T07:05:00.375Z,83.50
2017-10-09T07:06:02.905Z,83.80
2017-10-09T07:07:06.244Z,83.90
2017-10-09T07:08:08.774Z,84.50
2017-10-09T07:09:11.292Z,83.90
2017-10-09T07:10:13.825Z,82.80
2017-10-09T07:11:16.423Z,82.30
2017-10-09T07:12:19.009Z,81.80
2017-10-09T07:13:22.303Z,82.10
2017-10-09T07:14:25.607Z,82.30
2017-10-09T07:15:28.135Z,82.20
2017-10-09T07:16:30.657Z,82.40
2017-10-09T07:17:33.221Z,83.00
2017-10-09T07:18:35.754Z,82.50
2017-10-09T07:19:38.281Z,83.60
2017-10-09T07:20:40.802Z,82.80
2017-10-09T07:21:43.337Z,82.20
2017-10-09T07:22:46.675Z,81.70
2017-10-09T07:23:49.197Z,81.70
2017-10-09T07:24:52.493Z,81.10
2017-10-09T07:25:55.035Z,81.10
2017-10-09T07:26:57.604Z,81.80
2017-10-09T07:28:00.902Z,81.50
2017-10-09T07:29:04.206Z,80.90
2017-10-09T07:30:06.746Z,80.90
2017-10-09T07:31:10.074Z,81.50
2017-10-09T07:32:12.632Z,81.50
2017-10-09T07:33:15.166Z,81.50
2017-10-09T07:34:18.457Z,82.30
2017-10-09T07:35:21.033Z,82.30
2017-10-09T07:36:23.568Z,82.20
2017-10-09T07:37:26.873Z,81.40
2017-10-09T07:38:29.403Z,81.40
2017-10-09T07:39:31.917Z,81.60
2017-10-09T07:40:34.502Z,81.80
2017-10-09T07:41:37.032Z,81.70
2017-10-09T07:42:39.569Z,81.80
2017-10-09T07:43:42.101Z,81.70
2017-10-09T07:44:44.645Z,82.10
2017-10-09T07:45:47.215Z,82.00
2017-10-09T07:46:49.743Z,80.90
2017-10-09T07:47:53.049Z,80.40
2017-10-09T07:48:55.564Z,80.30
2017-10-09T07:49:58.121Z,80.50
2017-10-09T07:51:00.650Z,80.50
2017-10-09T07:52:03.202Z,80.70
2017-10-09T07:53:06.497Z,80.00
2017-10-09T07:54:09.070Z,80.00
2017-10-09T07:55:11.643Z,80.20
2017-10-09T07:56:14.169Z,80.20
2017-10-09T07:57:19.633Z,80.10
2017-10-09T07:58:22.169Z,80.70
2017-10-09T07:59:24.737Z,79.30
2017-10-09T08:00:27.305Z,79.60
2017-10-09T08:01:30.597Z,80.10
2017-10-09T08:02:33.885Z,79.80
2017-10-09T08:03:37.178Z,79.10
2017-10-09T08:05:48.786Z,78.60
2017-10-09T08:06:51.316Z,78.90
2017-10-09T08:07:54.625Z,79.00
2017-10-09T08:08:57.162Z,79.00
2017-10-09T08:10:00.463Z,79.50
2017-10-09T08:11:03.030Z,79.50
2017-10-09T08:12:05.569Z,79.10
2017-10-09T08:13:08.084Z,79.10
2017-10-09T08:14:10.614Z,79.30
2017-10-09T08:16:23.779Z,79.70
2017-10-09T08:17:26.313Z,79.70
2017-10-09T08:18:29.637Z,79.80
2017-10-09T08:19:32.190Z,79.80
2017-10-09T08:20:34.713Z,80.00
2017-10-09T08:21:38.010Z,79.50
2017-10-09T08:22:40.582Z,79.50
2017-10-09T08:23:43.868Z,79.60
2017-10-09T08:24:47.171Z,79.60
2017-10-09T08:25:49.701Z,79.70
2017-10-09T08:26:52.999Z,79.70
2017-10-09T08:27:55.578Z,79.70
2017-10-09T08:28:58.105Z,80.10
2017-10-09T08:30:00.639Z,80.10
2017-10-09T08:31:03.165Z,79.80
2017-10-09T08:32:06.453Z,79.80
2017-10-09T08:33:09.023Z,79.70
2017-10-09T08:34:11.558Z,80.10
2017-10-09T08:35:14.096Z,79.50
2017-10-09T08:36:16.634Z,79.20
2017-10-09T08:37:19.213Z,79.30
2017-10-09T08:38:21.754Z,79.60
2017-10-09T08:39:24.363Z,79.40
2017-10-09T08:40:26.910Z,79.10
2017-10-09T08:41:29.441Z,78.80
2017-10-09T08:42:32.768Z,78.10
2017-10-09T08:43:35.302Z,78.10
2017-10-09T08:44:37.839Z,78.30
2017-10-09T08:45:40.369Z,77.10
2017-10-09T08:46:42.938Z,77.00
2017-10-09T08:47:45.471Z,76.70
2017-10-09T08:48:48.013Z,77.00
2017-10-09T08:49:51.307Z,76.90
2017-10-09T08:50:54.601Z,76.80
2017-10-09T08:51:57.163Z,76.80
2017-10-09T08:52:59.690Z,77.20
2017-10-09T08:54:02.221Z,77.10
2017-10-09T08:55:04.748Z,76.30
2017-10-09T08:56:08.044Z,76.70
2017-10-09T08:57:10.630Z,76.70
2017-10-09T08:58:13.163Z,77.00
2017-10-09T08:59:16.452Z,75.20
2017-10-09T09:00:19.749Z,75.60
2017-10-09T09:01:22.277Z,75.60
2017-10-09T09:02:24.838Z,75.70
2017-10-09T09:03:27.390Z,75.30
2017-10-09T09:04:29.966Z,75.10
2017-10-09T09:05:32.503Z,75.40
2017-10-09T09:06:35.047Z,75.40
2017-10-09T09:07:37.586Z,75.60
2017-10-09T09:08:40.117Z,75.30
2017-10-09T09:09:42.682Z,73.50
2017-10-09T09:10:45.205Z,74.20
2017-10-09T09:11:47.739Z,73.90
2017-10-09T09:12:50.280Z,73.70
2017-10-09T09:13:52.811Z,72.70
2017-10-09T09:14:55.383Z,70.50
2017-10-09T09:15:57.911Z,68.40
2017-10-09T09:17:01.259Z,65.20
2017-10-09T09:18:03.798Z,64.90
2017-10-09T09:19:06.332Z,64.00
2017-10-09T09:20:09.612Z,60.80
2017-10-09T09:21:12.129Z,60.80
2017-10-09T09:22:14.694Z,58.00
2017-10-09T09:23:17.321Z,55.40
2017-10-09T09:24:19.853Z,55.40
2017-10-09T09:25:22.382Z,56.10
2017-10-09T09:26:24.905Z,56.30
2017-10-09T09:27:28.246Z,58.90
2017-10-09T09:28:30.814Z,59.00
2017-10-09T09:29:33.330Z,60.10
2017-10-09T09:30:35.853Z,62.00
2017-10-09T09:31:38.412Z,63.90
2017-10-09T09:32:40.948Z,66.00
2017-10-09T09:33:43.481Z,65.60
2017-10-09T09:34:46.015Z,66.70
2017-10-09T09:35:48.543Z,67.30
2017-10-09T09:36:51.872Z,67.60
2017-10-09T09:37:54.406Z,67.60
2017-10-09T09:38:56.934Z,66.00
2017-10-09T09:39:59.462Z,64.50
2017-10-09T09:41:02.006Z,64.40
2017-10-09T09:42:04.557Z,64.20
2017-10-09T09:43:07.842Z,64.40
2017-10-09T09:44:10.402Z,64.40
2017-10-09T09:45:13.698Z,62.40
2017-10-09T09:46:16.247Z,62.30
2017-10-09T09:47:19.575Z,61.90
2017-10-09T09:48:22.117Z,62.00
2017-10-09T09:49:24.650Z,63.20
2017-10-09T09:50:27.183Z,63.20
2017-10-09T09:51:29.754Z,63.60
2017-10-09T09:52:32.269Z,60.40
2017-10-09T09:53:35.558Z,57.50
2017-10-09T09:54:38.093Z,57.40
2017-10-09T09:55:40.651Z,54.00
2017-10-09T09:56:43.189Z,55.30
2017-10-09T09:57:45.714Z,54.50
2017-10-09T09:58:49.040Z,55.90
2017-10-09T09:59:51.557Z,55.80
2017-10-09T10:00:54.844Z,56.60
2017-10-09T10:01:58.131Z,56.70
2017-10-09T10:03:01.425Z,57.60
2017-10-09T10:04:03.989Z,57.60
2017-10-09T10:05:06.514Z,57.70
2017-10-09T10:06:09.038Z,58.30
2017-10-09T10:07:11.622Z,58.60
2017-10-09T10:08:14.153Z,58.00
2017-10-09T10:09:16.677Z,58.70
2017-10-09T10:10:19.211Z,56.60
2017-10-09T10:11:21.749Z,55.90
2017-10-09T10:12:25.065Z,54.20
2017-10-09T10:13:27.635Z,54.30
2017-10-09T10:14:30.155Z,52.50
2017-10-09T10:15:33.438Z,51.50
2017-10-09T10:16:36.721Z,50.90
2017-10-09T10:17:40.014Z,51.30
2017-10-09T10:18:42.584Z,51.50
2017-10-09T10:19:45.117Z,52.20
2017-10-09T10:20:47.641Z,51.70
2017-10-09T10:21:50.161Z,51.10
2017-10-09T10:22:52.682Z,51.30
2017-10-09T10:23:55.249Z,50.50
2017-10-09T10:24:57.777Z,50.10
2017-10-09T10:26:01.062Z,48.80
2017-10-09T10:27:03.591Z,48.80
2017-10-09T10:28:06.154Z,50.70
2017-10-09T10:29:08.749Z,51.00
2017-10-09T10:30:12.037Z,54.00
2017-10-09T10:31:15.325Z,55.00
2017-10-09T10:32:18.605Z,54.60
2017-10-09T10:33:21.897Z,55.40
2017-10-09T10:34:24.479Z,55.40
2017-10-09T10:35:26.990Z,53.80
2017-10-09T10:36:29.517Z,54.60
2017-10-09T10:37:32.054Z,55.10
2017-10-09T10:38:35.342Z,56.90
2017-10-09T10:39:37.893Z,56.90
2017-10-09T10:40:41.181Z,58.60
2017-10-09T10:41:44.479Z,58.60
2017-10-09T10:42:47.029Z,58.60
2017-10-09T10:43:50.317Z,56.30
2017-10-09T10:44:53.612Z,55.00
2017-10-09T10:45:56.175Z,54.90
2017-10-09T10:46:58.694Z,53.60
2017-10-09T10:48:01.251Z,52.20
2017-10-09T10:49:03.780Z,52.50
2017-10-09T10:50:06.328Z,52.00
2017-10-09T10:51:09.627Z,50.70
2017-10-09T10:52:12.147Z,50.70
2017-10-09T10:53:14.706Z,51.00
2017-10-09T10:54:17.270Z,50.10
2017-10-09T10:55:19.793Z,50.90
2017-10-09T10:56:22.316Z,51.90
2017-10-09T10:57:24.845Z,51.80
2017-10-09T10:58:27.358Z,51.50
2017-10-09T10:59:30.701Z,52.50
2017-10-09T11:00:33.225Z,53.00
2017-10-09T11:01:36.506Z,54.00
2017-10-09T11:02:39.802Z,54.50
2017-10-09T11:03:42.336Z,54.50
2017-10-09T11:04:44.929Z,55.30
2017-10-09T11:05:48.226Z,55.10
2017-10-09T11:06:50.754Z,55.20
2017-10-09T11:07:53.272Z,55.30
2017-10-09T11:08:55.808Z,54.50
2017-10-09T11:09:59.133Z,55.70
2017-10-09T11:11:01.662Z,55.70
2017-10-09T11:12:04.958Z,57.50
2017-10-09T11:13:07.488Z,57.50
2017-10-09T11:14:10.041Z,58.50
2017-10-09T11:15:12.605Z,57.60
2017-10-09T11:16:15.134Z,57.00
2017-10-09T11:17:17.651Z,57.50
2017-10-09T11:18:20.959Z,56.40
2017-10-09T11:19:23.503Z,56.40
2017-10-09T11:20:26.064Z,55.80
2017-10-09T11:21:28.590Z,55.10
2017-10-09T11:22:31.156Z,53.80
2017-10-09T11:23:33.773Z,53.80
2017-10-09T11:24:37.058Z,54.40
2017-10-09T11:25:39.578Z,54.40
2017-10-09T11:26:42.111Z,55.50
2017-10-09T11:27:44.701Z,56.30
2017-10-09T11:28:47.225Z,57.00
2017-10-09T11:29:49.737Z,55.60
2017-10-09T11:30:52.265Z,55.60
2017-10-09T11:31:55.603Z,55.30
2017-10-09T11:32:58.119Z,55.30
2017-10-09T11:34:01.409Z,55.90
2017-10-09T11:35:03.938Z,55.80
2017-10-09T11:36:06.471Z,55.50
2017-10-09T11:37:09.034Z,55.50
2017-10-09T11:38:11.555Z,55.90
2017-10-09T11:39:14.855Z,54.80
2017-10-09T11:40:18.142Z,54.60
2017-10-09T11:41:20.692Z,54.60
2017-10-09T11:42:24.014Z,55.50
2017-10-09T11:43:26.574Z,55.50
2017-10-09T11:44:29.105Z,55.50
2017-10-09T11:45:32.450Z,57.30
2017-10-09T11:46:34.981Z,57.30
2017-10-09T11:47:37.501Z,58.20
2017-10-09T11:48:40.018Z,57.60
2017-10-09T11:49:42.549Z,57.30
2017-10-09T11:50:45.878Z,58.30
2017-10-09T11:51:48.390Z,58.20
2017-10-09T11:52:50.945Z,58.40
2017-10-09T11:53:53.477Z,59.60
2017-10-09T11:54:56.035Z,59.20
2017-10-09T11:55:58.559Z,58.40
2017-10-09T11:57:01.845Z,58.80
2017-10-09T11:58:05.169Z,56.10
2017-10-09T11:59:07.721Z,56.10
2017-10-09T12:00:10.246Z,54.40
2017-10-09T12:01:12.762Z,54.40
2017-10-09T12:02:15.327Z,53.40
2017-10-09T12:03:17.862Z,51.70
2017-10-09T12:04:21.145Z,52.30
2017-10-09T12:05:24.479Z,53.10
2017-10-09T12:06:27.001Z,52.60
2017-10-09T12:07:30.325Z,54.00
2017-10-09T12:08:32.838Z,54.10
2017-10-09T12:09:35.470Z,52.60
2017-10-09T12:10:37.998Z,52.80
2017-10-09T12:11:41.298Z,54.70
2017-10-09T12:12:43.840Z,54.70
2017-10-09T12:13:47.134Z,54.80
2017-10-09T12:14:49.687Z,54.70
2017-10-09T12:15:53.014Z,54.20
2017-10-09T12:16:55.539Z,54.20
2017-10-09T12:17:58.828Z,53.10
2017-10-09T12:19:02.128Z,53.40
2017-10-09T12:20:04.647Z,53.40
2017-10-09T12:21:07.209Z,53.30
2017-10-09T12:22:09.754Z,52.50
2017-10-09T12:23:12.281Z,52.90
2017-10-09T12:24:14.801Z,52.90
2017-10-09T12:25:17.318Z,53.20
2017-10-09T12:26:19.875Z,53.80
2017-10-09T12:27:22.412Z,54.60
2017-10-09T12:28:24.939Z,54.80
2017-10-09T12:29:27.504Z,55.40
2017-10-09T12:30:30.017Z,56.30
2017-10-09T12:31:33.357Z,56.90
2017-10-09T12:32:35.896Z,56.80
2017-10-09T12:33:38.416Z,57.30
2017-10-09T12:34:40.941Z,57.90
2017-10-09T12:35:43.457Z,57.40
2017-10-09T12:36:46.003Z,58.20
2017-10-09T12:37:48.571Z,57.40
2017-10-09T12:38:51.108Z,57.80
2017-10-09T12:39:53.627Z,58.40
2017-10-09T12:40:56.147Z,58.60
2017-10-09T12:41:58.665Z,58.80
2017-10-09T12:43:01.998Z,59.30
2017-10-09T12:44:05.275Z,59.60
2017-10-09T12:45:07.794Z,59.60
2017-10-09T12:46:11.091Z,59.40
2017-10-09T12:47:14.376Z,58.60
2017-10-09T12:48:17.689Z,58.10
2017-10-09T12:49:20.218Z,58.10
2017-10-09T12:50:23.538Z,57.70
2017-10-09T12:51:26.151Z,57.80
2017-10-09T12:52:28.691Z,58.10
2017-10-09T12:53:31.226Z,57.50
2017-10-09T12:54:33.744Z,57.00
2017-10-09T12:55:36.318Z,57.00
2017-10-09T12:56:38.846Z,56.70
2017-10-09T12:57:41.377Z,56.40
2017-10-09T12:58:43.914Z,57.30
2017-10-09T12:59:46.433Z,57.60
2017-10-09T13:00:48.981Z,57.40
2017-10-09T13:01:51.505Z,57.50
2017-10-09T13:02:54.072Z,57.50
2017-10-09T13:03:56.619Z,57.60
2017-10-09T13:04:59.142Z,57.50
2017-10-09T13:06:01.711Z,57.20
2017-10-09T13:07:04.997Z,58.60
2017-10-09T13:08:07.561Z,58.60
2017-10-09T13:09:10.082Z,58.70
2017-10-09T13:10:12.609Z,58.70
2017-10-09T13:11:15.133Z,59.40
2017-10-09T13:12:17.660Z,58.70
2017-10-09T13:13:20.222Z,58.60
2017-10-09T13:14:22.737Z,58.70
2017-10-09T13:15:26.032Z,59.50
2017-10-09T13:16:29.374Z,59.40
2017-10-09T13:17:31.897Z,60.00
2017-10-09T13:18:34.466Z,59.20
2017-10-09T13:19:36.998Z,60.00
2017-10-09T13:20:39.510Z,60.80
2017-10-09T13:21:42.085Z,59.90
2017-10-09T13:22:44.606Z,58.80
2017-10-09T13:23:47.925Z,56.90
2017-10-09T13:24:50.443Z,56.90
2017-10-09T13:25:52.970Z,55.60
2017-10-09T13:26:55.491Z,55.90
2017-10-09T13:27:58.789Z,54.40
2017-10-09T13:29:01.354Z,54.40
2017-10-09T13:30:03.868Z,54.10
2017-10-09T13:31:06.432Z,54.00
2017-10-09T13:32:08.958Z,54.30